Time;durP1;ratioP1;P1;durP2;ratioP2;P2;SDS_P1;SDS_P2;PMS_P1;PMS_P2;Temp;Humidity;BMP_temperature;BMP_pressure;BME280_temperature;BME280_humidity;BME280_pressure;Samples;Min_cycle;Max_cycle;Signal;HPM_P1;HPM_P2
2021/08/25 00:00:54;;;;;;;11.63;10.53;;;;;;;17.51;84.13;96938.03;5056228;28;20577;-63
2021/08/25 00:03:20;;;;;;;12.57;11.37;;;;;;;17.44;84.74;96945.38;5067238;28;20421;-65
2021/08/25 00:05:45;;;;;;;11.73;10.63;;;;;;;17.35;85.01;96939.75;5076082;28;20266;-65
2021/08/25 00:08:11;;;;;;;12.70;11.60;;;;;;;17.42;84.63;96936.88;5076178;28;20167;-65
2021/08/25 00:10:37;;;;;;;11.03;9.93;;;;;;;17.41;84.71;96937.94;5076208;28;20189;-66
2021/08/25 00:13:06;;;;;;;13.03;11.23;;;;;;;17.42;84.22;96934.22;5075035;28;20298;-63
2021/08/25 00:15:34;;;;;;;11.57;10.57;;;;;;;17.18;85.08;96936.41;5075928;28;20197;-65
2021/08/25 00:17:59;;;;;;;11.60;10.60;;;;;;;17.19;85.44;96931.91;5074492;28;20465;-63
2021/08/25 00:20:24;;;;;;;12.50;11.40;;;;;;;17.29;84.34;96935.44;5075877;28;20757;-65
2021/08/25 00:22:50;;;;;;;11.63;10.67;;;;;;;17.32;84.85;96940.25;5061272;28;20203;-63
2021/08/25 00:25:15;;;;;;;13.00;11.30;;;;;;;17.29;84.79;96935.44;5055695;28;20708;-65
2021/08/25 00:27:40;;;;;;;11.47;10.47;;;;;;;17.33;84.64;96938.41;5055984;28;20202;-63
2021/08/25 00:30:06;;;;;;;12.47;11.20;;;;;;;17.41;83.38;96933.41;5055650;28;20179;-63
2021/08/25 00:32:32;;;;;;;11.90;10.90;;;;;;;17.24;83.99;96930.09;5055627;28;20168;-64
2021/08/25 00:34:57;;;;;;;13.53;12.33;;;;;;;17.23;84.04;96928.47;5055182;28;21001;-63
2021/08/25 00:37:22;;;;;;;11.10;10.10;;;;;;;17.17;84.53;96928.69;5067291;28;20206;-65
2021/08/25 00:39:48;;;;;;;11.80;10.80;;;;;;;17.10;84.72;96933.41;5075510;28;20189;-65
2021/08/25 00:42:13;;;;;;;12.43;11.33;;;;;;;17.07;84.76;96934.72;5075526;28;20175;-63
2021/08/25 00:44:39;;;;;;;12.73;11.43;;;;;;;17.10;84.84;96928.09;5074982;28;20273;-64
2021/08/25 00:47:05;;;;;;;12.90;11.77;;;;;;;17.14;84.61;96922.03;5075393;28;20171;-66
2021/08/25 00:49:30;;;;;;;12.70;11.60;;;;;;;17.00;85.73;96922.69;5075575;28;20767;-62
2021/08/25 00:51:56;;;;;;;13.53;12.17;;;;;;;16.91;86.46;96916.22;5063932;28;20237;-63
2021/08/25 00:54:22;;;;;;;13.00;11.63;;;;;;;16.89;86.78;96913.84;5054817;28;20268;-64
2021/08/25 00:56:49;;;;;;;12.50;11.40;;;;;;;16.88;86.70;96917.56;5055176;28;20520;-65
2021/08/25 00:59:17;;;;;;;12.97;11.80;;;;;;;16.89;86.72;96910.38;5054981;28;20207;-63
2021/08/25 01:02:06;;;;;;;11.80;10.73;;;;;;;16.94;86.40;96913.09;5055133;28;20805;-63
2021/08/25 01:04:43;;;;;;;12.43;11.33;;;;;;;16.96;85.94;96911.78;5054665;28;20443;-63
2021/08/25 01:07:11;;;;;;;12.63;11.53;;;;;;;17.02;85.60;96920.59;5069097;28;20503;-65
2021/08/25 01:09:39;;;;;;;12.30;11.30;;;;;;;16.96;85.90;96917.09;5075063;28;20417;-63
2021/08/25 01:12:07;;;;;;;12.37;11.27;;;;;;;16.92;86.23;96921.28;5074858;28;20417;-64
2021/08/25 01:14:33;;;;;;;12.30;11.20;;;;;;;16.91;86.15;96916.22;5074391;28;20437;-63
2021/08/25 01:16:58;;;;;;;12.27;11.10;;;;;;;16.91;85.86;96914.38;5075036;28;20876;-63
2021/08/25 01:19:26;;;;;;;12.00;10.90;;;;;;;16.89;85.62;96911.19;5074800;28;20202;-63
2021/08/25 01:21:51;;;;;;;11.20;10.27;;;;;;;16.71;86.59;96911.53;5071326;28;20178;-64
2021/08/25 01:24:18;;;;;;;12.70;11.60;;;;;;;16.81;85.39;96901.03;5074061;28;20498;-63
2021/08/25 01:26:46;;;;;;;11.23;10.23;;;;;;;16.86;85.66;96905.56;5073348;28;20171;-64
2021/08/25 01:29:30;;;;;;;12.23;11.10;;;;;;;16.79;85.96;96900.47;5074627;28;20409;-64
2021/08/25 01:31:55;;;;;;;13.33;11.60;;;;;;;16.85;85.51;96893.38;5074492;28;20409;-64
2021/08/25 01:34:21;;;;;;;11.93;10.83;;;;;;;16.87;85.23;96892.03;5074073;28;20989;-63
2021/08/25 01:36:52;;;;;;;12.30;11.10;;;;;;;16.80;85.42;96880.84;5058762;28;20692;-63
2021/08/25 01:39:19;;;;;;;11.33;10.33;;;;;;;16.75;85.50;96887.94;5069545;28;20453;-64
2021/08/25 01:41:44;;;;;;;12.00;10.90;;;;;;;16.65;85.85;96877.25;5074367;28;20872;-64
2021/08/25 01:44:10;;;;;;;12.83;11.60;;;;;;;16.71;85.71;96876.22;5073810;28;20405;-64
2021/08/25 01:46:38;;;;;;;12.30;11.20;;;;;;;16.61;86.57;96876.13;5074296;28;20179;-63
2021/08/25 01:49:07;;;;;;;11.17;10.17;;;;;;;16.65;86.18;96867.41;5074094;28;20174;-63
2021/08/25 01:51:33;;;;;;;12.20;11.03;;;;;;;16.45;87.31;96868.00;5072553;28;20433;-64
2021/08/25 01:54:02;;;;;;;12.90;11.70;;;;;;;16.56;86.87;96868.13;5073654;28;20405;-64
2021/08/25 01:56:28;;;;;;;12.17;11.07;;;;;;;16.43;86.90;96869.31;5074130;28;20401;-64
2021/08/25 01:58:55;;;;;;;12.77;11.57;;;;;;;16.50;87.03;96871.78;5074070;28;20865;-62
2021/08/25 02:01:21;;;;;;;12.70;11.53;;;;;;;16.63;85.15;96869.50;5074119;28;20190;-63
2021/08/25 02:03:46;;;;;;;12.43;11.33;;;;;;;16.67;85.45;96880.47;5073318;28;20914;-63
2021/08/25 02:06:12;;;;;;;12.37;11.27;;;;;;;16.52;85.83;96883.75;5073145;28;20195;-64
2021/08/25 02:08:37;;;;;;;13.00;11.83;;;;;;;16.41;86.58;96888.09;5073908;28;20175;-63
2021/08/25 02:11:03;;;;;;;12.57;11.40;;;;;;;16.54;86.10;96886.16;5073938;28;20632;-64
2021/08/25 02:13:28;;;;;;;11.50;10.33;;;;;;;16.59;85.54;96879.06;5073548;28;20696;-63
2021/08/25 02:15:54;;;;;;;12.83;11.63;;;;;;;16.56;85.91;96884.84;5073854;28;20194;-62
2021/08/25 02:18:19;;;;;;;12.37;11.03;;;;;;;16.56;85.88;96881.41;5073765;28;20274;-64
2021/08/25 02:20:44;;;;;;;12.83;11.67;;;;;;;16.46;86.00;96874.09;5063433;28;20531;-64
2021/08/25 02:23:11;;;;;;;12.73;11.63;;;;;;;16.42;86.39;96876.44;5053490;28;20168;-63
2021/08/25 02:25:36;;;;;;;12.90;11.70;;;;;;;16.44;86.45;96873.53;5053508;28;20442;-64
2021/08/25 02:28:02;;;;;;;12.70;11.37;;;;;;;16.60;85.17;96864.72;5053611;28;20497;-64
2021/08/25 02:30:27;;;;;;;13.63;12.27;;;;;;;16.64;84.77;96857.06;5053532;28;20171;-63
2021/08/25 02:32:52;;;;;;;12.90;11.63;;;;;;;16.52;85.21;96859.06;5053227;28;20182;-63
2021/08/25 02:35:18;;;;;;;12.27;11.17;;;;;;;16.52;85.12;96854.56;5060086;28;20190;-63
2021/08/25 02:37:43;;;;;;;11.60;10.60;;;;;;;16.53;85.01;96855.34;5066517;28;20266;-64
2021/08/25 02:40:10;;;;;;;12.80;11.70;;;;;;;16.49;85.33;96855.06;5053505;28;20175;-63
2021/08/25 02:42:36;;;;;;;12.00;10.90;;;;;;;16.43;85.84;96858.69;5053123;28;20221;-64
2021/08/25 02:45:04;;;;;;;12.87;11.80;;;;;;;16.45;85.69;96853.91;5053418;28;20437;-64
2021/08/25 02:47:29;;;;;;;11.97;10.77;;;;;;;16.45;85.58;96849.41;5053177;28;20172;-62
2021/08/25 02:49:54;;;;;;;11.40;10.30;;;;;;;16.48;84.85;96856.13;5053242;28;20437;-63
2021/08/25 02:52:20;;;;;;;14.13;12.50;;;;;;;16.38;85.55;96848.00;5057993;28;20209;-64
2021/08/25 02:54:45;;;;;;;12.70;11.57;;;;;;;16.37;85.69;96841.94;5072823;28;20205;-64
2021/08/25 02:57:11;;;;;;;13.20;12.00;;;;;;;16.35;86.03;96840.56;5073492;28;20174;-64
2021/08/25 02:59:36;;;;;;;12.43;11.27;;;;;;;16.27;86.24;96836.50;5073114;28;20209;-63
2021/08/25 03:02:02;;;;;;;14.40;13.10;;;;;;;16.24;86.41;96836.19;5072611;28;20236;-63
2021/08/25 03:04:27;;;;;;;12.33;11.13;;;;;;;16.26;86.67;96829.59;5052646;28;20187;-63
2021/08/25 03:06:52;;;;;;;14.10;12.57;;;;;;;16.25;86.99;96837.81;5072715;28;20584;-63
2021/08/25 03:09:18;;;;;;;12.20;11.00;;;;;;;16.18;87.64;96838.00;5073411;28;20209;-64
2021/08/25 03:11:43;;;;;;;12.80;11.60;;;;;;;16.25;87.51;96832.50;5073037;28;20167;-64
2021/08/25 03:14:09;;;;;;;13.87;12.57;;;;;;;16.19;87.65;96828.19;5073830;28;20229;-64
2021/08/25 03:16:34;;;;;;;12.10;10.90;;;;;;;16.13;87.92;96822.03;5077057;28;20170;-64
2021/08/25 03:19:00;;;;;;;12.70;11.50;;;;;;;16.27;87.41;96823.25;5076875;28;20210;-64
2021/08/25 03:21:25;;;;;;;15.33;11.50;;;;;;;16.20;87.65;96830.59;5059041;28;20317;-64
2021/08/25 03:23:50;;;;;;;13.47;12.27;;;;;;;16.26;86.82;96828.78;5056601;28;20623;-62
2021/08/25 03:26:16;;;;;;;12.67;11.37;;;;;;;16.14;87.10;96828.94;5056903;28;20231;-63
2021/08/25 03:28:41;;;;;;;12.37;11.30;;;;;;;16.24;86.21;96826.41;5057066;28;20171;-63
2021/08/25 03:31:07;;;;;;;12.53;11.33;;;;;;;16.28;85.72;96827.50;5056751;28;20182;-63
2021/08/25 03:33:32;;;;;;;13.83;11.90;;;;;;;16.29;85.48;96825.63;5056417;28;20325;-63
2021/08/25 03:35:57;;;;;;;12.10;11.10;;;;;;;16.25;85.40;96822.69;5064750;28;20195;-63
2021/08/25 03:38:23;;;;;;;12.47;11.37;;;;;;;16.32;84.63;96822.50;5056663;28;20269;-64
2021/08/25 03:40:48;;;;;;;13.37;11.63;;;;;;;16.24;84.61;96821.09;5056715;28;20226;-63
2021/08/25 03:43:14;;;;;;;13.30;11.90;;;;;;;16.16;84.76;96821.53;5056430;28;20251;-63
2021/08/25 03:45:39;;;;;;;12.60;11.30;;;;;;;16.06;85.68;96818.78;5056403;28;20715;-62
2021/08/25 03:48:05;;;;;;;12.00;10.90;;;;;;;15.96;86.16;96817.88;5056418;28;20167;-64
2021/08/25 03:50:30;;;;;;;12.63;11.53;;;;;;;16.01;85.61;96810.78;5061696;28;20199;-64
2021/08/25 03:52:55;;;;;;;13.07;11.87;;;;;;;16.11;85.18;96808.22;5076115;28;20182;-63
2021/08/25 03:55:22;;;;;;;12.97;11.70;;;;;;;16.03;85.42;96808.66;5076438;28;20191;-63
2021/08/25 03:57:48;;;;;;;12.90;11.70;;;;;;;16.04;85.19;96804.97;5076181;28;20201;-64
2021/08/25 04:00:13;;;;;;;14.00;11.43;;;;;;;16.07;84.84;96809.75;5076298;28;20515;-64
2021/08/25 04:02:39;;;;;;;14.03;12.63;;;;;;;15.95;85.57;96809.09;5075762;28;20174;-64
2021/08/25 04:05:05;;;;;;;13.90;12.60;;;;;;;16.01;85.15;96802.81;5075380;28;20203;-63
2021/08/25 04:07:30;;;;;;;12.73;11.43;;;;;;;16.08;84.66;96802.63;5076128;28;20217;-64
2021/08/25 04:09:55;;;;;;;11.43;10.43;;;;;;;15.96;84.94;96809.91;5076065;28;20437;-64
2021/08/25 04:12:21;;;;;;;13.43;12.23;;;;;;;15.98;84.77;96805.94;5076050;28;20688;-64
2021/08/25 04:14:46;;;;;;;13.87;12.57;;;;;;;15.95;85.21;96805.66;5075641;28;20194;-64
2021/08/25 04:17:11;;;;;;;13.27;11.97;;;;;;;15.91;85.87;96805.34;5075951;28;20537;-64
2021/08/25 04:19:37;;;;;;;14.10;12.80;;;;;;;15.94;85.95;96804.84;5071425;28;20282;-63
2021/08/25 04:22:02;;;;;;;15.13;13.30;;;;;;;15.90;86.42;96803.75;5056018;28;20257;-66
2021/08/25 04:24:28;;;;;;;13.80;12.50;;;;;;;15.97;86.21;96800.91;5055348;28;20202;-63
2021/08/25 04:26:53;;;;;;;13.40;12.20;;;;;;;15.97;86.32;96809.66;5054699;28;20239;-64
2021/08/25 04:29:19;;;;;;;13.17;11.90;;;;;;;15.86;86.75;96804.47;5061853;28;20175;-63
2021/08/25 04:31:44;;;;;;;14.00;12.67;;;;;;;15.79;87.17;96809.19;5055632;28;20190;-63
2021/08/25 04:34:10;;;;;;;14.87;13.37;;;;;;;15.89;86.92;96802.13;5055233;28;20172;-64
2021/08/25 04:36:36;;;;;;;13.43;12.23;;;;;;;15.90;86.75;96802.94;5055568;28;20172;-63
2021/08/25 04:39:02;;;;;;;14.00;12.70;;;;;;;15.91;87.18;96804.53;5055602;28;20657;-64
2021/08/25 04:41:27;;;;;;;14.00;12.70;;;;;;;15.94;86.95;96804.84;5055590;28;20841;-64
2021/08/25 04:43:53;;;;;;;14.50;13.00;;;;;;;15.94;87.15;96806.72;5061698;28;20449;-64
2021/08/25 04:46:18;;;;;;;14.27;12.97;;;;;;;15.87;87.39;96798.94;5075294;28;20186;-64
2021/08/25 04:48:44;;;;;;;13.60;12.40;;;;;;;15.91;87.71;96807.19;5075637;28;20178;-64
2021/08/25 04:51:11;;;;;;;14.00;12.80;;;;;;;15.97;87.40;96800.91;5075372;28;20178;-65
2021/08/25 04:53:39;;;;;;;14.27;12.97;;;;;;;15.95;87.54;96811.75;5057055;28;20673;-64
2021/08/25 04:56:05;;;;;;;14.40;12.87;;;;;;;15.96;87.45;96797.44;5055350;28;20438;-64
2021/08/25 04:58:34;;;;;;;14.53;13.13;;;;;;;15.95;87.54;96803.81;5055133;28;20450;-64
2021/08/25 05:01:00;;;;;;;13.80;12.57;;;;;;;15.95;87.64;96803.00;5055125;28;20167;-64
2021/08/25 05:03:25;;;;;;;13.90;12.50;;;;;;;15.94;87.94;96806.72;5066996;28;20906;-64
2021/08/25 05:05:51;;;;;;;14.00;12.60;;;;;;;15.96;87.89;96807.25;5075020;28;20724;-63
2021/08/25 05:08:16;;;;;;;13.13;11.90;;;;;;;15.93;88.11;96811.19;5074505;28;20230;-64
2021/08/25 05:10:50;;;;;;;17.27;13.00;;;;;;;15.86;88.61;96810.59;5075004;28;20235;-64
2021/08/25 05:13:16;;;;;;;13.97;12.57;;;;;;;15.92;88.22;96808.81;5073361;28;20181;-64
2021/08/25 05:15:47;;;;;;;13.67;12.47;;;;;;;15.95;87.75;96806.47;5066217;28;20854;-62
2021/08/25 05:18:13;;;;;;;15.10;13.67;;;;;;;15.96;88.34;96812.56;5054805;28;20199;-64
2021/08/25 05:20:38;;;;;;;14.30;13.07;;;;;;;15.95;88.52;96808.31;5053503;28;20435;-62
2021/08/25 05:23:04;;;;;;;14.20;12.80;;;;;;;16.07;88.15;96806.34;5054681;28;20185;-64
2021/08/25 05:25:29;;;;;;;15.67;14.17;;;;;;;16.12;87.80;96809.84;5054450;28;20294;-65
2021/08/25 05:27:54;;;;;;;14.70;13.40;;;;;;;16.15;87.86;96813.81;5070018;28;20210;-63
2021/08/25 05:30:20;;;;;;;15.53;13.10;;;;;;;16.10;88.21;96809.28;5056060;28;20187;-64
2021/08/25 05:32:51;;;;;;;13.43;12.23;;;;;;;16.16;87.92;96813.56;5054278;28;20167;-64
2021/08/25 05:35:16;;;;;;;14.37;12.97;;;;;;;16.14;88.27;96820.19;5054439;28;20187;-64
2021/08/25 05:37:42;;;;;;;14.80;13.40;;;;;;;16.13;88.63;96824.69;5053951;28;20515;-62
2021/08/25 05:40:07;;;;;;;14.07;12.67;;;;;;;16.16;88.90;96824.19;5054624;28;20206;-65
2021/08/25 05:42:33;;;;;;;13.73;12.33;;;;;;;16.26;88.44;96823.50;5054499;28;20172;-64
2021/08/25 05:44:58;;;;;;;14.23;12.87;;;;;;;16.28;87.90;96821.41;5056258;28;20199;-62
2021/08/25 05:47:23;;;;;;;14.77;13.27;;;;;;;16.20;88.69;96822.63;5065969;28;20187;-64
2021/08/25 05:49:49;;;;;;;15.60;12.30;;;;;;;16.19;88.57;96823.69;5074245;28;20167;-64
2021/08/25 05:52:14;;;;;;;15.13;13.63;;;;;;;16.32;88.28;96825.16;5074290;28;20629;-62
2021/08/25 05:54:39;;;;;;;13.00;11.80;;;;;;;16.32;88.15;96823.28;5073846;28;20190;-64
2021/08/25 05:57:05;;;;;;;13.73;12.43;;;;;;;16.36;87.69;96819.09;5074224;28;20625;-62
2021/08/25 05:59:30;;;;;;;13.57;12.17;;;;;;;16.34;88.17;96823.06;5074116;28;20202;-63
2021/08/25 06:01:55;;;;;;;13.13;11.93;;;;;;;16.35;87.70;96822.81;5063739;28;20182;-64
2021/08/25 06:04:21;;;;;;;12.73;11.63;;;;;;;16.29;88.46;96820.34;5073373;28;20221;-63
2021/08/25 06:06:46;;;;;;;12.93;11.70;;;;;;;16.29;88.49;96821.13;5074018;28;20678;-63
2021/08/25 06:09:12;;;;;;;13.10;11.80;;;;;;;16.26;88.86;96816.34;5074055;28;20206;-62
2021/08/25 06:11:39;;;;;;;15.43;13.57;;;;;;;16.27;88.82;96823.25;5073802;28;20193;-64
2021/08/25 06:14:04;;;;;;;14.33;12.93;;;;;;;16.43;88.19;96825.00;5072693;28;20178;-63
2021/08/25 06:16:30;;;;;;;13.30;12.00;;;;;;;16.50;87.82;96824.03;5073708;28;20409;-62
2021/08/25 06:18:55;;;;;;;14.03;12.63;;;;;;;16.46;88.20;96813.09;5074136;28;20605;-64
2021/08/25 06:21:20;;;;;;;12.87;11.77;;;;;;;16.54;88.19;96814.53;5073677;28;20170;-63
2021/08/25 06:23:46;;;;;;;13.70;12.40;;;;;;;16.47;88.29;96806.75;5054848;28;20205;-63
2021/08/25 06:26:12;;;;;;;14.47;12.47;;;;;;;16.57;87.96;96808.69;5053620;28;20194;-63
2021/08/25 06:28:37;;;;;;;12.13;10.87;;;;;;;16.51;88.23;96802.53;5053480;28;20167;-63
2021/08/25 06:31:03;;;;;;;13.60;10.87;;;;;;;16.52;88.25;96801.50;5053527;28;20193;-64
2021/08/25 06:33:28;;;;;;;12.80;11.70;;;;;;;16.58;88.13;96795.19;5053158;28;20168;-64
2021/08/25 06:35:54;;;;;;;12.97;11.77;;;;;;;16.57;88.65;96798.09;5053455;28;20199;-65
2021/08/25 06:38:19;;;;;;;14.20;12.40;;;;;;;16.51;88.53;96799.09;5069317;28;20668;-63
2021/08/25 06:40:45;;;;;;;14.10;12.70;;;;;;;16.57;88.70;96803.41;5073110;28;20174;-63
2021/08/25 06:43:10;;;;;;;13.50;12.03;;;;;;;16.59;88.45;96803.94;5073044;28;20177;-62
2021/08/25 06:45:35;;;;;;;14.30;11.93;;;;;;;16.55;88.30;96808.16;5068098;28;20191;-63
2021/08/25 06:48:01;;;;;;;13.10;11.80;;;;;;;16.73;88.03;96810.44;5052979;28;20175;-63
2021/08/25 06:50:26;;;;;;;11.27;10.20;;;;;;;16.78;87.93;96813.94;5053097;28;20286;-62
2021/08/25 06:52:52;;;;;;;12.23;11.03;;;;;;;16.81;88.48;96809.97;5052926;28;20227;-64
2021/08/25 06:55:18;;;;;;;12.23;11.13;;;;;;;16.84;88.05;96809.47;5053127;28;20673;-64
2021/08/25 06:57:43;;;;;;;12.90;11.63;;;;;;;16.84;88.76;96807.63;5053048;28;20241;-64
2021/08/25 07:00:09;;;;;;;13.07;11.77;;;;;;;16.93;88.61;96810.59;5055013;28;20242;-62
2021/08/25 07:02:34;;;;;;;11.77;10.67;;;;;;;16.93;88.60;96800.78;5073076;28;20175;-64
2021/08/25 07:04:59;;;;;;;11.67;9.77;;;;;;;17.02;88.71;96811.72;5072869;28;20201;-63
2021/08/25 07:07:25;;;;;;;11.13;10.13;;;;;;;17.08;88.58;96797.44;5073261;28;20171;-63
2021/08/25 07:09:50;;;;;;;12.33;10.53;;;;;;;17.19;88.12;96796.44;5073388;28;20262;-66
2021/08/25 07:12:16;;;;;;;12.10;11.00;;;;;;;17.08;87.79;96789.47;5073287;28;20185;-67
2021/08/25 07:14:41;;;;;;;11.10;10.00;;;;;;;16.99;87.69;96789.16;5071953;28;20194;-60
2021/08/25 07:17:06;;;;;;;11.70;10.60;;;;;;;16.93;87.45;96787.50;5071856;28;20617;-59
2021/08/25 07:19:32;;;;;;;11.60;10.37;;;;;;;17.04;87.71;96793.69;5073102;28;20198;-67
2021/08/25 07:21:57;;;;;;;11.03;10.00;;;;;;;17.17;87.55;96785.28;5073178;28;20572;-60
2021/08/25 07:24:23;;;;;;;10.90;9.10;;;;;;;17.19;87.79;96788.47;5072428;28;20221;-67
2021/08/25 07:26:48;;;;;;;9.27;8.47;;;;;;;17.26;87.16;96781.88;5072849;28;20174;-67
2021/08/25 07:29:13;;;;;;;9.50;8.57;;;;;;;17.26;86.48;96784.53;5068341;28;20540;-65
2021/08/25 07:31:39;;;;;;;9.20;8.27;;;;;;;17.23;86.41;96778.91;5072642;28;20174;-61
2021/08/25 07:34:04;;;;;;;9.70;8.80;;;;;;;17.21;86.43;96779.19;5061566;28;20682;-66
2021/08/25 07:36:30;;;;;;;8.20;7.40;;;;;;;17.40;86.27;96785.69;5072868;28;20163;-67
2021/08/25 07:38:55;;;;;;;8.77;8.03;;;;;;;17.57;85.84;96780.22;5072961;28;20191;-67
2021/08/25 07:41:20;;;;;;;9.23;8.30;;;;;;;17.60;86.37;96778.88;5069960;28;20167;-67
2021/08/25 07:43:46;;;;;;;8.37;7.67;;;;;;;17.55;83.91;96779.69;5055592;28;20214;-66
2021/08/25 07:46:11;;;;;;;7.67;6.60;;;;;;;17.64;83.66;96782.63;5049358;28;20199;-62
2021/08/25 07:48:37;;;;;;;7.57;6.87;;;;;;;17.53;82.04;96775.66;5049222;28;20654;-61
2021/08/25 07:51:08;;;;;;;8.00;7.03;;;;;;;17.44;83.17;96773.47;5065621;28;20591;-63
2021/08/25 07:53:37;;;;;;;7.13;6.43;;;;;;;17.62;82.44;96784.75;5068435;28;20625;-63
2021/08/25 07:56:03;;;;;;;7.03;6.33;;;;;;;17.65;82.76;96784.22;5069184;28;20939;-62
2021/08/25 07:58:28;;;;;;;8.30;7.60;;;;;;;17.84;82.35;96785.38;5068462;28;20468;-67
2021/08/25 08:00:54;;;;;;;7.77;6.73;;;;;;;17.78;82.83;96783.75;5066069;28;20229;-64
2021/08/25 08:03:19;;;;;;;7.70;7.00;;;;;;;17.85;81.97;96777.13;5062547;28;20189;-67
2021/08/25 08:05:45;;;;;;;7.00;6.40;;;;;;;18.01;81.27;96770.78;5072213;28;20186;-66
2021/08/25 08:08:10;;;;;;;6.60;5.70;;;;;;;17.92;79.95;96780.34;5072589;28;20163;-69
2021/08/25 08:10:35;;;;;;;8.37;6.00;;;;;;;18.12;80.45;96780.41;5072681;28;20178;-64
2021/08/25 08:13:01;;;;;;;7.53;6.20;;;;;;;18.28;80.32;96784.69;5072436;28;20175;-68
2021/08/25 08:15:30;;;;;;;6.97;6.40;;;;;;;18.27;79.86;96779.63;5072406;28;20190;-65
2021/08/25 08:17:56;;;;;;;6.93;6.33;;;;;;;18.47;79.53;96774.38;5060008;28;20282;-66
2021/08/25 08:20:21;;;;;;;7.13;6.43;;;;;;;18.73;79.45;96775.19;5069101;28;20508;-65
2021/08/25 08:22:48;;;;;;;9.63;8.23;;;;;;;18.69;80.48;96780.25;5074399;28;20221;-66
2021/08/25 08:25:14;;;;;;;7.97;7.27;;;;;;;18.78;80.29;96783.97;5075705;28;20252;-67
2021/08/25 08:27:40;;;;;;;9.57;8.67;;;;;;;18.79;79.78;96780.22;5075753;28;20474;-68
2021/08/25 08:30:06;;;;;;;8.63;7.73;;;;;;;18.69;81.66;96774.09;5076001;28;20405;-69
2021/08/25 08:32:31;;;;;;;8.70;8.00;;;;;;;18.79;81.30;96780.22;5063519;28;20190;-64
2021/08/25 08:34:57;;;;;;;9.47;8.10;;;;;;;18.86;79.70;96774.66;5072092;28;20198;-64
2021/08/25 08:37:22;;;;;;;7.43;6.73;;;;;;;18.96;79.11;96780.75;5073064;28;20196;-61
2021/08/25 08:39:47;;;;;;;8.00;7.30;;;;;;;19.11;78.96;96782.63;5072186;28;20324;-65
2021/08/25 08:42:30;;;;;;;8.93;8.03;;;;;;;19.26;79.19;96786.03;5075251;28;20178;-62
2021/08/25 08:44:57;;;;;;;8.67;8.00;;;;;;;19.27;78.74;96776.19;5065272;28;20275;-62
2021/08/25 08:47:24;;;;;;;9.33;8.53;;;;;;;19.44;78.15;96777.50;5066131;28;20425;-62
2021/08/25 08:49:52;;;;;;;7.87;7.03;;;;;;;19.59;77.44;96776.66;5064997;28;20793;-66
2021/08/25 08:52:19;;;;;;;7.70;7.10;;;;;;;19.63;77.45;96785.72;5074934;28;20899;-65
2021/08/25 08:54:45;;;;;;;7.73;7.03;;;;;;;19.67;77.41;96786.78;5095009;28;20436;-66
2021/08/25 08:57:10;;;;;;;8.50;7.70;;;;;;;19.69;76.49;96779.31;5094253;28;20400;-66
2021/08/25 08:59:35;;;;;;;6.93;6.33;;;;;;;19.77;75.77;96781.38;5095693;28;20605;-61
2021/08/25 09:02:01;;;;;;;7.13;6.53;;;;;;;19.76;76.04;96785.13;5095728;28;20178;-61
2021/08/25 09:04:40;;;;;;;6.97;6.37;;;;;;;19.87;75.23;96775.22;5094936;28;20269;-61
2021/08/25 09:07:16;;;;;;;8.80;7.57;;;;;;;19.76;74.88;96776.31;5071135;28;20203;-61
2021/08/25 09:09:53;;;;;;;7.00;6.40;;;;;;;19.82;74.99;96778.69;5055363;28;20492;-61
2021/08/25 09:12:19;;;;;;;7.17;6.57;;;;;;;19.88;75.22;96774.13;5054248;28;20461;-66
2021/08/25 09:14:44;;;;;;;7.60;6.90;;;;;;;19.95;73.03;96777.28;5054601;28;20798;-66
2021/08/25 09:17:09;;;;;;;7.17;6.57;;;;;;;20.05;71.70;96772.72;5055088;28;20250;-61
2021/08/25 09:19:35;;;;;;;7.00;6.30;;;;;;;20.10;72.24;96767.34;5055016;28;20731;-61
2021/08/25 09:22:02;;;;;;;6.70;6.00;;;;;;;20.28;72.03;96772.09;5062676;28;20182;-66
2021/08/25 09:24:41;;;;;;;7.10;6.47;;;;;;;20.15;70.55;96769.19;5074172;28;20209;-61
2021/08/25 09:27:07;;;;;;;6.20;5.70;;;;;;;20.34;70.44;96770.19;5074572;28;20500;-66
2021/08/25 09:29:33;;;;;;;5.27;4.83;;;;;;;20.45;71.00;96766.38;5074714;28;20488;-65
2021/08/25 09:31:59;;;;;;;6.33;5.77;;;;;;;20.46;70.28;96778.63;5074621;28;20496;-61
2021/08/25 09:34:33;;;;;;;5.43;4.90;;;;;;;20.56;70.46;96769.75;5074221;28;20191;-66
2021/08/25 09:37:16;;;;;;;7.10;4.93;;;;;;;20.55;67.52;96771.63;5060240;28;20181;-66
2021/08/25 09:39:48;;;;;;;4.70;4.40;;;;;;;20.54;67.42;96770.03;5054339;28;20798;-66
2021/08/25 09:42:16;;;;;;;6.33;4.80;;;;;;;20.66;68.81;96769.66;5054619;28;20418;-66
2021/08/25 09:44:42;;;;;;;5.10;4.60;;;;;;;20.57;69.03;96760.66;5053952;28;20513;-66
2021/08/25 09:47:08;;;;;;;6.10;5.60;;;;;;;20.42;69.90;96764.25;5054313;28;20416;-66
2021/08/25 09:49:33;;;;;;;6.87;6.17;;;;;;;20.45;70.00;96764.47;5054491;28;20411;-67
2021/08/25 09:51:59;;;;;;;7.73;6.50;;;;;;;20.68;71.48;96754.16;5070516;28;20174;-66
2021/08/25 09:54:24;;;;;;;6.77;5.90;;;;;;;20.87;68.53;96750.53;5073681;28;20290;-61
2021/08/25 09:56:53;;;;;;;6.30;5.67;;;;;;;21.08;69.49;96751.19;5074113;28;20190;-66
2021/08/25 09:59:19;;;;;;;6.17;5.60;;;;;;;21.23;67.68;96749.13;5074042;28;20267;-66
2021/08/25 10:01:45;;;;;;;5.63;5.13;;;;;;;21.29;66.51;96750.69;5074053;28;20888;-61
2021/08/25 10:04:13;;;;;;;5.77;5.17;;;;;;;21.25;65.07;96746.97;5073586;28;20527;-66
2021/08/25 10:06:42;;;;;;;7.03;5.90;;;;;;;21.34;64.81;96749.84;5058125;28;20422;-61
2021/08/25 10:09:09;;;;;;;5.07;4.60;;;;;;;21.34;64.33;96752.53;5053982;28;20406;-66
2021/08/25 10:11:39;;;;;;;5.57;5.07;;;;;;;21.54;63.52;96749.63;5053945;28;20406;-66
2021/08/25 10:14:10;;;;;;;6.00;5.27;;;;;;;21.60;62.27;96745.78;5054427;28;20429;-66
2021/08/25 10:16:46;;;;;;;7.57;6.60;;;;;;;21.73;62.51;96736.25;5063888;28;20417;-67
2021/08/25 10:19:39;;;;;;;5.63;5.13;;;;;;;21.84;62.74;96737.75;5077606;28;21011;-64
2021/08/25 10:22:16;;;;;;;5.87;5.37;;;;;;;21.91;64.97;96736.34;5072152;28;20449;-65
2021/08/25 10:24:54;;;;;;;6.50;4.50;;;;;;;22.05;64.48;96736.44;5086504;28;21030;-65
2021/08/25 10:27:24;;;;;;;5.73;5.23;;;;;;;22.35;62.92;96736.78;5094003;28;20971;-68
2021/08/25 10:30:02;;;;;;;5.17;4.77;;;;;;;22.70;62.66;96732.75;5083848;28;20516;-67
2021/08/25 10:32:38;;;;;;;5.90;5.07;;;;;;;22.49;60.88;96729.59;5062720;28;20431;-69
2021/08/25 10:35:13;;;;;;;5.17;4.67;;;;;;;22.58;60.05;96729.75;5073506;28;20524;-69
2021/08/25 10:37:40;;;;;;;5.50;5.00;;;;;;;22.79;58.90;96725.63;5073288;28;20444;-68
2021/08/25 10:40:07;;;;;;;6.17;5.67;;;;;;;22.88;60.32;96723.09;5073580;28;20409;-64
2021/08/25 10:42:44;;;;;;;4.70;4.30;;;;;;;22.76;58.18;96715.50;5073584;28;20405;-68
2021/08/25 10:45:10;;;;;;;4.80;4.40;;;;;;;22.63;55.80;96710.91;5073364;28;20448;-65
2021/08/25 10:47:57;;;;;;;6.53;4.70;;;;;;;22.88;56.61;96704.34;5069563;28;20463;-68
2021/08/25 10:50:23;;;;;;;5.20;4.70;;;;;;;23.08;57.86;96702.06;5059240;28;20187;-65
2021/08/25 10:52:48;;;;;;;6.87;4.90;;;;;;;23.06;57.58;96709.59;5053635;28;20437;-67
2021/08/25 10:55:14;;;;;;;4.37;3.97;;;;;;;23.23;55.59;96701.00;5069756;28;20204;-67
2021/08/25 10:57:43;;;;;;;4.67;4.27;;;;;;;23.14;54.99;96698.22;5069633;28;20179;-68
2021/08/25 11:00:10;;;;;;;5.00;4.60;;;;;;;23.23;56.59;96690.25;5069396;28;20171;-67
2021/08/25 11:02:39;;;;;;;4.63;4.23;;;;;;;23.27;54.66;96693.94;5069398;28;20414;-66
2021/08/25 11:05:05;;;;;;;4.53;4.10;;;;;;;23.40;55.80;96691.31;5069528;28;20436;-67
2021/08/25 11:07:39;;;;;;;5.07;4.57;;;;;;;23.38;53.14;96687.31;5065501;28;20445;-68
2021/08/25 11:10:05;;;;;;;5.23;4.27;;;;;;;23.38;55.36;96681.97;5049724;28;20414;-63
2021/08/25 11:12:32;;;;;;;4.20;3.63;;;;;;;23.54;53.88;96685.91;5082935;28;20472;-62
2021/08/25 11:14:57;;;;;;;4.87;4.00;;;;;;;23.78;52.50;96686.50;5089433;28;20203;-62
2021/08/25 11:17:28;;;;;;;4.07;3.77;;;;;;;23.76;50.96;96682.50;5089931;28;20408;-63
2021/08/25 11:19:59;;;;;;;4.03;3.70;;;;;;;23.83;51.70;96683.69;5083073;28;20572;-63